^^
Meteo Knjazevac Station Historical Data
Daily Summary for May 3, 2021 Units:  Metric    English   Both
Daily Weekly Monthly Yearly Custom
  High: Low: Average:
Temperature: 10.1 °C 6.5 °C 8 °C
Dew Point: 7.9 °C 5.8 °C 6.7 °C
Humidity: 95% 86% 92%
Wind Speed: 3.2km/h 0km/h 0.6km/h
Wind Gust: 6.4km/h - -
Wind- - West
Pressure: 1022.6 hPa 1022.2 hPa -
Precipitation: 0 mm    
Historical Graphs
 
 
Tabular Data for May 3, 2021
Time Temperature Dew Point Pressure Wind Wind Speed Wind Gust Humidity Rainfall Rate (Hourly) solar Conditions
00:00 10.1 °C 7.9 °C 1022.2 hPa NE 1.6 km/h 3.2 km/h 86% 0 mm 0 W/m2
00:10 9.9 °C 7.7 °C 1022.2 hPa Calm   3.2 km/h 86% 0 mm 0 W/m2
00:20 9.6 °C 7.7 °C 1022.2 hPa Calm   3.2 km/h 88% 0 mm 0 W/m2
00:30 9.5 °C 7.8 °C 1022.2 hPa Calm   3.2 km/h 89% 0 mm 0 W/m2
00:40 9.3 °C 7.6 °C 1022.2 hPa Calm   3.2 km/h 89% 0 mm 0 W/m2
00:50 9.2 °C 7.5 °C 1022.2 hPa Calm   3.2 km/h 89% 0 mm 0 W/m2
01:00 8.9 °C 7.2 °C 1022.2 hPa Calm   1.6 km/h 89% 0 mm 0 W/m2
01:10 8.7 °C 7.2 °C 1022.2 hPa Calm   1.6 km/h 90% 0 mm 0 W/m2
01:20 8.6 °C 7.1 °C 1022.2 hPa Calm   1.6 km/h 90% 0 mm 0 W/m2
01:30 8.4 °C 7 °C 1022.2 hPa NW 1.6 km/h 3.2 km/h 91% 0 mm 0 W/m2
01:40 8.2 °C 6.8 °C 1022.2 hPa Calm   3.2 km/h 91% 0 mm 0 W/m2
01:50 8 °C 6.6 °C 1022.2 hPa Calm   3.2 km/h 91% 0 mm 0 W/m2
02:00 7.8 °C 6.4 °C 1022.2 hPa West 1.6 km/h 3.2 km/h 91% 0 mm 0 W/m2
02:10 7.7 °C 6.7 °C 1022.2 hPa Calm   1.6 km/h 93% 0 mm 0 W/m2
02:20 7.6 °C 6.6 °C 1022.2 hPa Calm   3.2 km/h 93% 0 mm 0 W/m2
02:30 7.4 °C 6.3 °C 1022.2 hPa West 3.2 km/h 3.2 km/h 93% 0 mm 0 W/m2
02:40 7.2 °C 6.2 °C 1022.2 hPa Calm   3.2 km/h 93% 0 mm 0 W/m2
02:50 7.2 °C 6.3 °C 1022.6 hPa NNW 1.6 km/h 3.2 km/h 94% 0 mm 0 W/m2
03:00 7.2 °C 6.3 °C 1022.6 hPa Calm   1.6 km/h 94% 0 mm 0 W/m2
03:10 7 °C 6.1 °C 1022.6 hPa WNW 1.6 km/h 3.2 km/h 94% 0 mm 0 W/m2
03:20 6.8 °C 5.9 °C 1022.6 hPa Calm   3.2 km/h 94% 0 mm 0 W/m2
03:30 6.7 °C 5.8 °C 1022.6 hPa West 1.6 km/h 6.4 km/h 94% 0 mm 0 W/m2
03:40 6.7 °C 5.9 °C 1022.6 hPa NNW 1.6 km/h 3.2 km/h 95% 0 mm 0 W/m2
03:50 6.7 °C 5.9 °C 1022.6 hPa Calm   3.2 km/h 95% 0 mm 0 W/m2
04:00 6.6 °C 5.8 °C 1022.6 hPa NW 1.6 km/h 3.2 km/h 95% 0 mm 0 W/m2
04:10 6.5 °C 5.8 °C 1022.6 hPa Calm   4.8 km/h 95% 0 mm 0 W/m2
Knjazevac, Serbia
Compliments of Weather Underground - 2 mb